createdAt,value
2024-02-14T00:01:30.264Z,5.86
2024-02-14T00:04:01.468Z,5.84
2024-02-14T00:06:31.580Z,5.81
2024-02-14T00:09:01.032Z,5.76
2024-02-14T00:11:33.188Z,5.77
2024-02-14T00:14:02.249Z,5.75
2024-02-14T00:16:32.786Z,5.63
2024-02-14T00:19:04.087Z,5.58
2024-02-14T00:21:35.384Z,5.51
2024-02-14T00:24:08.848Z,5.57
2024-02-14T00:26:38.762Z,5.55
2024-02-14T00:29:07.582Z,5.48
2024-02-14T00:31:37.245Z,5.52
2024-02-14T00:34:08.543Z,5.53
2024-02-14T00:36:37.114Z,5.43
2024-02-14T00:39:05.680Z,5.52
2024-02-14T00:41:35.067Z,5.77
2024-02-14T00:44:04.415Z,5.90
2024-02-14T00:46:33.406Z,5.86
2024-02-14T00:49:02.237Z,5.92
2024-02-14T00:51:32.429Z,6.06
2024-02-14T00:54:04.026Z,5.90
2024-02-14T00:56:32.857Z,5.82
2024-02-14T00:59:02.126Z,5.71
2024-02-14T01:01:31.153Z,5.78
2024-02-14T01:03:59.823Z,5.72
2024-02-14T01:06:29.818Z,5.68
2024-02-14T01:09:01.780Z,5.69
2024-02-14T01:11:31.111Z,5.62
2024-02-14T01:13:59.650Z,5.66
2024-02-14T01:16:28.397Z,5.53
2024-02-14T01:18:58.236Z,5.55
2024-02-14T01:21:27.688Z,5.46
2024-02-14T01:23:57.060Z,5.44
2024-02-14T01:26:28.247Z,5.52
2024-02-14T01:28:57.097Z,5.48
2024-02-14T01:31:25.824Z,5.39
2024-02-14T01:33:55.188Z,5.51
2024-02-14T01:36:24.599Z,5.55
2024-02-14T01:38:53.023Z,5.52
2024-02-14T01:41:22.691Z,5.69
2024-02-14T01:43:54.407Z,5.62
2024-02-14T01:46:22.918Z,5.65
2024-02-14T01:48:51.803Z,5.56
2024-02-14T01:51:22.307Z,5.61
2024-02-14T01:53:50.627Z,5.56
2024-02-14T01:56:19.358Z,5.64
2024-02-14T01:58:47.978Z,5.55
2024-02-14T02:01:19.561Z,5.37
2024-02-14T02:03:48.751Z,5.40
2024-02-14T02:06:19.664Z,5.37
2024-02-14T02:08:49.509Z,5.37
2024-02-14T02:11:18.359Z,5.35
2024-02-14T02:13:50.159Z,5.39
2024-02-14T02:16:24.400Z,5.20
2024-02-14T02:18:56.114Z,5.32
2024-02-14T02:21:26.005Z,5.35
2024-02-14T02:23:56.265Z,5.33
2024-02-14T02:26:25.102Z,5.25
2024-02-14T02:28:54.009Z,5.35
2024-02-14T02:31:23.339Z,5.33
2024-02-14T02:33:53.362Z,5.31
2024-02-14T02:36:25.387Z,5.25
2024-02-14T02:38:56.756Z,5.18
2024-02-14T02:41:25.966Z,5.02
2024-02-14T02:43:55.798Z,5.04
2024-02-14T02:46:24.803Z,5.13
2024-02-14T02:48:56.186Z,5.05
2024-02-14T02:51:26.488Z,5.01
2024-02-14T02:53:59.316Z,4.92
2024-02-14T02:56:29.097Z,5.08
2024-02-14T02:58:57.641Z,5.15
2024-02-14T03:01:26.552Z,5.04
2024-02-14T03:03:55.317Z,5.04
2024-02-14T03:06:24.190Z,5.04
2024-02-14T03:08:53.605Z,4.91
2024-02-14T03:11:26.628Z,5.13
2024-02-14T03:13:56.415Z,5.04
2024-02-14T03:16:30.321Z,4.95
2024-02-14T03:19:00.063Z,4.90
2024-02-14T03:21:33.859Z,4.91
2024-02-14T03:24:02.801Z,5.06
2024-02-14T03:26:36.960Z,5.00
2024-02-14T03:29:07.715Z,5.08
2024-02-14T03:31:37.340Z,5.16
2024-02-14T03:34:06.724Z,5.11
2024-02-14T03:36:35.970Z,4.99
2024-02-14T03:39:05.809Z,4.91
2024-02-14T03:41:40.679Z,4.93
2024-02-14T03:44:12.681Z,4.93
2024-02-14T03:46:42.406Z,4.84
2024-02-14T03:49:12.412Z,5.04
2024-02-14T03:51:42.895Z,5.09
2024-02-14T03:54:17.615Z,5.09
2024-02-14T03:56:51.083Z,5.08
2024-02-14T03:59:26.308Z,5.18
2024-02-14T04:01:59.316Z,5.17
2024-02-14T04:04:29.095Z,4.98
2024-02-14T04:06:59.938Z,4.93
2024-02-14T04:09:34.501Z,4.79
2024-02-14T04:12:12.359Z,4.84
2024-02-14T04:14:42.939Z,4.96
2024-02-14T04:17:15.436Z,4.92
2024-02-14T04:19:45.462Z,4.96
2024-02-14T04:22:16.211Z,5.02
2024-02-14T04:24:45.793Z,4.93
2024-02-14T04:27:17.514Z,4.95
2024-02-14T04:29:51.335Z,4.92
2024-02-14T04:32:24.635Z,5.02
2024-02-14T04:34:55.013Z,5.10
2024-02-14T04:37:24.173Z,5.09
2024-02-14T04:39:53.162Z,4.98
2024-02-14T04:42:24.490Z,5.07
2024-02-14T04:44:54.459Z,5.00
2024-02-14T04:47:31.701Z,4.98
2024-02-14T04:50:15.718Z,4.98
2024-02-14T04:52:45.086Z,5.02
2024-02-14T04:55:14.382Z,5.03
2024-02-14T04:57:47.474Z,4.97
2024-02-14T05:00:16.295Z,4.98
2024-02-14T05:02:45.531Z,4.96
2024-02-14T05:05:15.274Z,4.89
2024-02-14T05:07:45.619Z,4.94
2024-02-14T05:10:14.947Z,5.00
2024-02-14T05:12:49.209Z,5.02
2024-02-14T05:15:19.124Z,5.03
2024-02-14T05:17:50.836Z,5.04
2024-02-14T05:20:24.681Z,4.92
2024-02-14T05:22:54.110Z,4.91
2024-02-14T05:25:23.168Z,4.89
2024-02-14T05:27:54.078Z,4.91
2024-02-14T05:30:24.218Z,4.93
2024-02-14T05:32:54.750Z,4.95
2024-02-14T05:35:25.011Z,4.92
2024-02-14T05:37:54.265Z,4.89
2024-02-14T05:40:23.132Z,4.91
2024-02-14T05:42:57.926Z,4.87
2024-02-14T05:45:27.322Z,4.84
2024-02-14T05:47:56.247Z,4.86
2024-02-14T05:50:25.204Z,4.88
2024-02-14T05:52:53.829Z,4.93
2024-02-14T05:55:22.538Z,4.91
2024-02-14T05:57:54.504Z,4.91
2024-02-14T06:00:27.694Z,5.01
2024-02-14T06:02:57.797Z,4.92
2024-02-14T06:05:26.308Z,4.73
2024-02-14T06:07:54.953Z,4.79
2024-02-14T06:10:23.910Z,4.70
2024-02-14T06:12:58.188Z,4.81
2024-02-14T06:15:28.304Z,4.85
2024-02-14T06:17:57.755Z,4.84
2024-02-14T06:20:26.589Z,4.69
2024-02-14T06:23:02.251Z,4.79
2024-02-14T06:25:34.361Z,4.76
2024-02-14T06:28:05.585Z,4.81
2024-02-14T06:30:36.508Z,4.77
2024-02-14T06:33:06.468Z,4.68
2024-02-14T06:35:35.733Z,4.65
2024-02-14T06:38:05.842Z,4.82
2024-02-14T06:40:35.706Z,4.83
2024-02-14T06:43:09.375Z,4.87
2024-02-14T06:45:38.428Z,4.83
2024-02-14T06:48:08.323Z,4.82
2024-02-14T06:50:39.516Z,4.80
2024-02-14T06:53:09.025Z,4.81
2024-02-14T06:55:42.296Z,4.91
2024-02-14T06:58:13.270Z,4.75
2024-02-14T07:00:42.497Z,4.76
2024-02-14T07:03:15.245Z,4.72
2024-02-14T07:05:44.426Z,4.79
2024-02-14T07:08:13.437Z,4.84
2024-02-14T07:10:42.350Z,4.84
2024-02-14T07:13:15.805Z,4.90
2024-02-14T07:15:45.197Z,4.92
2024-02-14T07:18:15.085Z,5.01
2024-02-14T07:20:45.098Z,4.93
2024-02-14T07:23:13.723Z,5.06
2024-02-14T07:25:42.329Z,4.97
2024-02-14T07:28:16.015Z,4.97
2024-02-14T07:30:44.876Z,4.94
2024-02-14T07:33:14.221Z,5.02
2024-02-14T07:35:44.166Z,5.04
2024-02-14T07:38:12.559Z,4.92
2024-02-14T07:40:42.525Z,5.01
2024-02-14T07:43:18.456Z,5.08
2024-02-14T07:45:47.292Z,4.99
2024-02-14T07:48:17.241Z,4.97
2024-02-14T07:50:46.431Z,4.98
2024-02-14T07:53:16.197Z,5.01
2024-02-14T07:55:45.252Z,5.10
2024-02-14T07:58:15.604Z,5.11
2024-02-14T08:00:44.507Z,5.25
2024-02-14T08:03:13.466Z,5.23
2024-02-14T08:05:42.989Z,5.24
2024-02-14T08:08:11.619Z,5.27
2024-02-14T08:10:40.745Z,5.24
2024-02-14T08:13:09.356Z,5.20
2024-02-14T08:15:42.445Z,5.23
2024-02-14T08:18:11.884Z,5.18
2024-02-14T08:20:44.281Z,5.26
2024-02-14T08:23:13.061Z,5.35
2024-02-14T08:25:42.579Z,5.39
2024-02-14T08:28:12.047Z,5.43
2024-02-14T08:30:42.273Z,5.41
2024-02-14T08:33:12.710Z,5.40
2024-02-14T08:35:44.206Z,5.37
2024-02-14T08:38:13.375Z,5.30
2024-02-14T08:40:42.530Z,5.42
2024-02-14T08:43:11.365Z,5.34
2024-02-14T08:45:42.241Z,5.46
2024-02-14T08:48:11.220Z,5.63
2024-02-14T08:50:39.769Z,5.68
2024-02-14T08:53:08.852Z,5.76
2024-02-14T08:55:39.376Z,5.84
2024-02-14T08:58:08.090Z,5.75
2024-02-14T09:00:37.327Z,5.78
2024-02-14T09:03:10.851Z,5.78
2024-02-14T09:05:42.822Z,5.80
2024-02-14T09:08:12.092Z,5.77
2024-02-14T09:10:41.158Z,5.76
2024-02-14T09:13:10.814Z,5.56
2024-02-14T09:15:40.028Z,5.47
2024-02-14T09:18:11.353Z,5.57
2024-02-14T09:20:40.165Z,5.58
2024-02-14T09:23:09.783Z,5.58
2024-02-14T09:25:38.387Z,5.56
2024-02-14T09:28:08.555Z,5.60
2024-02-14T09:30:39.289Z,5.54
2024-02-14T09:33:13.244Z,5.62
2024-02-14T09:35:46.109Z,5.56
2024-02-14T09:38:15.565Z,5.61
2024-02-14T09:40:45.203Z,5.63
2024-02-14T09:43:26.060Z,5.62
2024-02-14T09:45:55.739Z,5.60
2024-02-14T09:48:29.584Z,5.63
2024-02-14T09:50:59.777Z,5.59
2024-02-14T09:53:29.132Z,5.67
2024-02-14T09:55:58.402Z,5.56
2024-02-14T09:58:29.716Z,5.61
2024-02-14T10:00:58.481Z,5.65
2024-02-14T10:03:29.205Z,5.66
2024-02-14T10:05:58.180Z,5.71
2024-02-14T10:08:29.610Z,5.73
2024-02-14T10:11:00.634Z,5.69
2024-02-14T10:13:32.896Z,5.80
2024-02-14T10:16:01.939Z,5.83
2024-02-14T10:18:35.171Z,5.87
2024-02-14T10:21:05.643Z,5.90
2024-02-14T10:23:35.905Z,5.84
2024-02-14T10:26:05.972Z,5.72
2024-02-14T10:28:43.629Z,5.79
2024-02-14T10:31:12.466Z,5.80
2024-02-14T10:33:49.101Z,5.89
2024-02-14T10:36:21.745Z,5.95
2024-02-14T10:38:53.712Z,6.04
2024-02-14T10:41:24.244Z,5.99
2024-02-14T10:43:53.424Z,6.03
2024-02-14T10:46:27.372Z,6.06
2024-02-14T10:49:04.153Z,6.08
2024-02-14T10:51:35.027Z,6.05
2024-02-14T10:54:18.227Z,6.16
2024-02-14T10:56:53.258Z,6.20
2024-02-14T10:59:24.012Z,6.14
2024-02-14T11:01:53.151Z,6.18
2024-02-14T11:04:24.461Z,6.20
2024-02-14T11:06:56.353Z,6.24
2024-02-14T11:09:26.166Z,6.37
2024-02-14T11:12:03.951Z,6.48
2024-02-14T11:14:37.027Z,6.61
2024-02-14T11:17:10.632Z,6.65
2024-02-14T11:19:43.277Z,6.65
2024-02-14T11:22:16.651Z,6.67
2024-02-14T11:24:48.535Z,6.56
2024-02-14T11:27:33.080Z,6.48
2024-02-14T11:30:05.154Z,6.59
2024-02-14T11:32:35.720Z,6.60
2024-02-14T11:35:09.617Z,6.64
2024-02-14T11:37:38.495Z,6.53
2024-02-14T11:40:08.514Z,6.56
2024-02-14T11:42:37.616Z,6.56
2024-02-14T11:45:07.635Z,6.59
2024-02-14T11:47:39.810Z,6.70
2024-02-14T11:50:12.738Z,6.74
2024-02-14T11:52:41.188Z,6.82
2024-02-14T11:55:17.026Z,6.79
2024-02-14T11:57:49.817Z,6.79
2024-02-14T12:00:19.591Z,6.79
2024-02-14T12:02:48.616Z,6.79
2024-02-14T12:05:20.836Z,6.79
2024-02-14T12:07:51.086Z,6.87
2024-02-14T12:10:20.152Z,6.98
2024-02-14T12:12:48.992Z,6.97
2024-02-14T12:15:18.036Z,7.04
2024-02-14T12:17:49.487Z,7.05
2024-02-14T12:20:24.652Z,6.96
2024-02-14T12:22:53.753Z,7.11
2024-02-14T12:25:23.514Z,7.01
2024-02-14T12:27:55.593Z,7.06
2024-02-14T12:30:25.769Z,7.13
2024-02-14T12:33:09.336Z,7.22
2024-02-14T12:35:43.381Z,7.16
2024-02-14T12:38:12.553Z,7.17
2024-02-14T12:40:45.324Z,7.12
2024-02-14T12:43:17.255Z,7.20
2024-02-14T12:45:46.912Z,7.17
2024-02-14T12:48:16.813Z,7.25
2024-02-14T12:50:53.968Z,7.29
2024-02-14T12:53:22.716Z,7.33
2024-02-14T12:55:51.721Z,7.42
2024-02-14T12:58:20.482Z,7.46
2024-02-14T13:00:49.340Z,7.45
2024-02-14T13:03:19.846Z,7.57
2024-02-14T13:05:50.468Z,7.52
2024-02-14T13:08:20.399Z,7.58
2024-02-14T13:10:48.823Z,7.58
2024-02-14T13:13:17.893Z,7.60
2024-02-14T13:15:47.254Z,7.66
2024-02-14T13:18:17.327Z,7.62
2024-02-14T13:20:46.841Z,7.61
2024-02-14T13:23:18.839Z,7.58
2024-02-14T13:25:47.181Z,7.60
2024-02-14T13:28:16.372Z,7.71
2024-02-14T13:30:45.377Z,7.74
2024-02-14T13:33:13.921Z,7.79
2024-02-14T13:35:42.781Z,7.76
2024-02-14T13:38:11.962Z,7.77
2024-02-14T13:40:46.025Z,7.82
2024-02-14T13:43:17.533Z,7.74
2024-02-14T13:45:49.248Z,7.87
2024-02-14T13:48:18.315Z,7.85
2024-02-14T13:50:47.472Z,7.88
2024-02-14T13:53:18.105Z,7.94
2024-02-14T13:55:49.272Z,7.99
2024-02-14T13:58:18.644Z,7.91
2024-02-14T14:00:50.226Z,7.99
2024-02-14T14:03:19.292Z,8.01
2024-02-14T14:05:48.568Z,7.99
2024-02-14T14:08:17.236Z,8.08
2024-02-14T14:10:47.777Z,8.12
2024-02-14T14:13:18.537Z,8.12
2024-02-14T14:15:47.151Z,8.11
2024-02-14T14:18:15.754Z,8.07
2024-02-14T14:20:44.661Z,8.07
2024-02-14T14:23:14.148Z,8.11
2024-02-14T14:25:43.422Z,8.16
2024-02-14T14:28:15.812Z,8.13
2024-02-14T14:30:45.596Z,8.09
2024-02-14T14:33:18.060Z,8.13
2024-02-14T14:35:47.859Z,8.12
2024-02-14T14:38:16.224Z,8.09
2024-02-14T14:40:46.659Z,8.14
2024-02-14T14:43:17.356Z,8.19
2024-02-14T14:45:47.372Z,8.24
2024-02-14T14:48:16.916Z,8.26
2024-02-14T14:50:45.685Z,8.31
2024-02-14T14:53:14.469Z,8.34
2024-02-14T14:55:52.775Z,8.32
2024-02-14T14:58:25.845Z,8.33
2024-02-14T15:00:57.257Z,8.33
2024-02-14T15:03:25.641Z,8.28
2024-02-14T15:05:55.372Z,8.31
2024-02-14T15:08:27.087Z,8.29
2024-02-14T15:10:57.351Z,8.34
2024-02-14T15:13:28.904Z,8.28
2024-02-14T15:15:59.082Z,8.31
2024-02-14T15:18:27.879Z,8.39
2024-02-14T15:20:56.158Z,8.37
2024-02-14T15:23:24.440Z,8.35
2024-02-14T15:25:55.904Z,8.31
2024-02-14T15:28:27.549Z,8.35
2024-02-14T15:31:15.127Z,8.39
2024-02-14T15:33:43.959Z,8.36
2024-02-14T15:36:17.149Z,8.40
2024-02-14T15:38:45.729Z,8.41
2024-02-14T15:41:15.905Z,8.41
2024-02-14T15:43:50.409Z,8.43
2024-02-14T15:46:21.378Z,8.42
2024-02-14T15:48:50.237Z,8.47
2024-02-14T15:51:19.984Z,8.40
2024-02-14T15:53:49.701Z,8.47
2024-02-14T15:56:19.515Z,8.52
2024-02-14T15:58:51.058Z,8.49
2024-02-14T16:01:21.793Z,8.51
2024-02-14T16:03:50.505Z,8.53
2024-02-14T16:06:19.343Z,8.52
2024-02-14T16:08:48.179Z,8.53
2024-02-14T16:11:16.630Z,8.52
2024-02-14T16:13:44.894Z,8.55
2024-02-14T16:16:13.231Z,8.55
2024-02-14T16:18:43.644Z,8.56
2024-02-14T16:21:12.427Z,8.55
2024-02-14T16:23:44.894Z,8.58
2024-02-14T16:26:16.001Z,8.56
2024-02-14T16:28:45.666Z,8.63
2024-02-14T16:31:18.184Z,8.59
2024-02-14T16:33:48.261Z,8.60
2024-02-14T16:36:17.272Z,8.61
2024-02-14T16:38:46.319Z,8.63
2024-02-14T16:41:22.361Z,8.65
2024-02-14T16:43:55.911Z,8.65
2024-02-14T16:46:27.365Z,8.62
2024-02-14T16:49:00.488Z,8.73
2024-02-14T16:51:31.643Z,8.70
2024-02-14T16:54:21.164Z,8.65
2024-02-14T16:56:52.689Z,8.72
2024-02-14T16:59:25.043Z,8.68
2024-02-14T17:01:57.348Z,8.74
2024-02-14T17:04:35.728Z,8.77
2024-02-14T17:07:06.172Z,8.79
2024-02-14T17:09:36.858Z,8.74
2024-02-14T17:12:07.832Z,8.77
2024-02-14T17:14:44.781Z,8.75
2024-02-14T17:17:18.422Z,8.67
2024-02-14T17:19:54.496Z,8.73
2024-02-14T17:22:31.752Z,8.84
2024-02-14T17:25:18.365Z,8.92
2024-02-14T17:27:50.313Z,8.87
2024-02-14T17:30:22.871Z,8.90
2024-02-14T17:32:55.140Z,8.95
2024-02-14T17:35:26.203Z,9.06
2024-02-14T17:37:54.729Z,9.02
2024-02-14T17:40:23.201Z,9.10
2024-02-14T17:42:54.353Z,9.11
2024-02-14T17:45:27.576Z,9.14
2024-02-14T17:47:59.425Z,9.19
2024-02-14T17:50:31.535Z,9.28
2024-02-14T17:52:59.689Z,9.40
2024-02-14T17:55:28.229Z,9.46
2024-02-14T17:57:56.433Z,9.48
2024-02-14T18:00:24.750Z,9.44
2024-02-14T18:02:53.126Z,9.42
2024-02-14T18:05:21.817Z,9.53
2024-02-14T18:07:52.358Z,9.61
2024-02-14T18:10:21.332Z,9.65
2024-02-14T18:12:49.528Z,9.71
2024-02-14T18:15:17.626Z,9.77
2024-02-14T18:17:46.089Z,9.80
2024-02-14T18:20:14.950Z,9.83
2024-02-14T18:22:45.513Z,9.89
2024-02-14T18:25:16.438Z,9.89
2024-02-14T18:27:44.824Z,9.93
2024-02-14T18:30:13.638Z,9.95
2024-02-14T18:32:42.619Z,10.02
2024-02-14T18:35:11.212Z,10.01
2024-02-14T18:37:39.415Z,10.03
2024-02-14T18:40:09.488Z,10.02
2024-02-14T18:42:39.619Z,10.07
2024-02-14T18:45:10.472Z,10.11
2024-02-14T18:47:39.317Z,10.12
2024-02-14T18:50:08.596Z,10.14
2024-02-14T18:52:37.142Z,10.09
2024-02-14T18:55:06.838Z,10.10
2024-02-14T18:57:38.191Z,10.09
2024-02-14T19:00:11.414Z,10.05
2024-02-14T19:02:40.629Z,10.03
2024-02-14T19:05:10.785Z,10.19
2024-02-14T19:07:39.303Z,10.17
2024-02-14T19:10:08.610Z,10.18
2024-02-14T19:12:38.342Z,10.23
2024-02-14T19:15:07.796Z,10.23
2024-02-14T19:17:36.320Z,10.26
2024-02-14T19:20:07.356Z,10.30
2024-02-14T19:22:35.633Z,10.29
2024-02-14T19:25:03.801Z,10.26
2024-02-14T19:27:32.515Z,10.23
2024-02-14T19:30:02.381Z,10.22
2024-02-14T19:32:30.623Z,10.22
2024-02-14T19:34:59.376Z,10.23
2024-02-14T19:37:27.677Z,10.25
2024-02-14T19:39:55.754Z,10.24
2024-02-14T19:42:23.908Z,10.33
2024-02-14T19:44:52.224Z,10.36
2024-02-14T19:47:22.026Z,10.36
2024-02-14T19:49:50.453Z,10.33
2024-02-14T19:52:18.811Z,10.28
2024-02-14T19:54:46.918Z,10.33
2024-02-14T19:57:15.280Z,10.33
2024-02-14T19:59:43.612Z,10.37
2024-02-14T20:02:11.779Z,10.29
2024-02-14T20:04:42.743Z,10.30
2024-02-14T20:07:11.015Z,10.31
2024-02-14T20:09:39.344Z,10.38
2024-02-14T20:12:08.483Z,10.38
2024-02-14T20:14:36.632Z,10.41
2024-02-14T20:17:05.715Z,10.41
2024-02-14T20:19:34.214Z,10.38
2024-02-14T20:22:06.268Z,10.40
2024-02-14T20:24:34.783Z,10.40
2024-02-14T20:27:03.091Z,10.37
2024-02-14T20:29:31.613Z,10.38
2024-02-14T20:31:59.837Z,10.40
2024-02-14T20:34:28.191Z,10.38
2024-02-14T20:36:56.385Z,10.35
2024-02-14T20:39:26.292Z,10.38
2024-02-14T20:41:54.963Z,10.37
2024-02-14T20:44:23.482Z,10.30
2024-02-14T20:46:52.744Z,10.36
2024-02-14T20:49:21.287Z,10.40
2024-02-14T20:51:49.621Z,10.37
2024-02-14T20:54:17.943Z,10.34
2024-02-14T20:56:48.157Z,10.34
2024-02-14T20:59:17.268Z,10.34
2024-02-14T21:01:45.659Z,10.39
2024-02-14T21:04:14.474Z,10.42
2024-02-14T21:06:44.061Z,10.46
2024-02-14T21:09:12.279Z,10.45
2024-02-14T21:11:41.307Z,10.52
2024-02-14T21:14:11.480Z,10.53
2024-02-14T21:16:39.853Z,10.50
2024-02-14T21:19:08.073Z,10.52
2024-02-14T21:21:37.396Z,10.52
2024-02-14T21:24:06.457Z,10.58
2024-02-14T21:26:36.362Z,10.56
2024-02-14T21:29:04.917Z,10.51
2024-02-14T21:31:34.604Z,10.56
2024-02-14T21:34:04.618Z,10.49
2024-02-14T21:36:33.659Z,10.39
2024-02-14T21:39:04.862Z,10.43
2024-02-14T21:41:33.521Z,10.51
2024-02-14T21:44:02.087Z,10.47
2024-02-14T21:46:30.393Z,10.47
2024-02-14T21:49:00.110Z,10.45
2024-02-14T21:51:29.767Z,10.43
2024-02-14T21:53:57.986Z,10.54
2024-02-14T21:56:26.359Z,10.55
2024-02-14T21:58:54.394Z,10.54
2024-02-14T22:01:22.770Z,10.57
2024-02-14T22:03:51.433Z,10.56
2024-02-14T22:06:20.929Z,10.55
2024-02-14T22:08:49.783Z,10.58
2024-02-14T22:11:18.028Z,10.65
2024-02-14T22:13:48.845Z,10.64
2024-02-14T22:16:18.690Z,10.60
2024-02-14T22:18:49.054Z,10.60
2024-02-14T22:21:17.365Z,10.70
2024-02-14T22:23:47.373Z,10.69
2024-02-14T22:26:15.939Z,10.64
2024-02-14T22:28:44.377Z,10.65
2024-02-14T22:31:12.800Z,10.60
2024-02-14T22:33:40.877Z,10.65
2024-02-14T22:36:11.557Z,10.70
2024-02-14T22:38:39.686Z,10.70
2024-02-14T22:41:09.202Z,10.72
2024-02-14T22:43:37.248Z,10.68
2024-02-14T22:46:05.546Z,10.68
2024-02-14T22:48:33.620Z,10.63
2024-02-14T22:51:02.590Z,10.69
2024-02-14T22:53:30.545Z,10.69
2024-02-14T22:55:58.729Z,10.66
2024-02-14T22:58:28.657Z,10.58
2024-02-14T23:00:57.139Z,10.67
2024-02-14T23:03:25.780Z,10.68
2024-02-14T23:05:54.153Z,10.73
2024-02-14T23:08:22.760Z,10.66
2024-02-14T23:10:51.033Z,10.71
2024-02-14T23:13:19.766Z,10.66
2024-02-14T23:15:53.284Z,10.73
2024-02-14T23:18:22.157Z,10.70
2024-02-14T23:20:50.944Z,10.64
2024-02-14T23:23:21.947Z,10.66
2024-02-14T23:25:50.162Z,10.72
2024-02-14T23:28:17.503Z,10.69
2024-02-14T23:30:47.159Z,10.73
2024-02-14T23:33:17.457Z,10.73
2024-02-14T23:35:47.136Z,10.71
2024-02-14T23:38:15.557Z,10.67
2024-02-14T23:40:43.855Z,10.63
2024-02-14T23:43:14.226Z,10.65
2024-02-14T23:45:43.061Z,10.63
2024-02-14T23:48:12.230Z,10.65
2024-02-14T23:50:42.082Z,10.64
2024-02-14T23:53:10.364Z,10.63
2024-02-14T23:55:38.838Z,10.67
2024-02-14T23:58:06.997Z,10.68
